sensor_id;sensor_type;location;lat;lon;timestamp;temperature;humidity
21815;DHT22;11069;48.988;8.450;2023-04-25T00:02:09;7.60;99.90
21815;DHT22;11069;48.988;8.450;2023-04-25T00:04:35;7.60;99.90
21815;DHT22;11069;48.988;8.450;2023-04-25T00:07:03;7.50;99.90
21815;DHT22;11069;48.988;8.450;2023-04-25T00:09:29;7.30;99.90
21815;DHT22;11069;48.988;8.450;2023-04-25T00:11:55;7.30;99.90
21815;DHT22;11069;48.988;8.450;2023-04-25T00:14:20;7.50;99.90
21815;DHT22;11069;48.988;8.450;2023-04-25T00:16:46;7.50;99.90
21815;DHT22;11069;48.988;8.450;2023-04-25T00:19:13;7.40;99.90
21815;DHT22;11069;48.988;8.450;2023-04-25T00:21:39;7.40;99.90
21815;DHT22;11069;48.988;8.450;2023-04-25T00:24:06;7.50;99.90
21815;DHT22;11069;48.988;8.450;2023-04-25T00:26:33;7.50;99.90
21815;DHT22;11069;48.988;8.450;2023-04-25T00:28:59;7.50;99.90
21815;DHT22;11069;48.988;8.450;2023-04-25T00:31:24;7.60;99.90
21815;DHT22;11069;48.988;8.450;2023-04-25T00:33:50;7.70;99.90
21815;DHT22;11069;48.988;8.450;2023-04-25T00:36:16;7.80;99.90
21815;DHT22;11069;48.988;8.450;2023-04-25T00:38:42;7.90;99.90
21815;DHT22;11069;48.988;8.450;2023-04-25T00:41:08;7.90;99.90
21815;DHT22;11069;48.988;8.450;2023-04-25T00:43:34;8.00;99.90
21815;DHT22;11069;48.988;8.450;2023-04-25T00:46:01;8.00;99.90
21815;DHT22;11069;48.988;8.450;2023-04-25T00:48:27;8.20;99.90
21815;DHT22;11069;48.988;8.450;2023-04-25T00:50:54;8.20;99.90
21815;DHT22;11069;48.988;8.450;2023-04-25T00:53:21;8.20;99.90
21815;DHT22;11069;48.988;8.450;2023-04-25T00:55:47;8.30;99.90
21815;DHT22;11069;48.988;8.450;2023-04-25T00:58:13;8.40;99.90
21815;DHT22;11069;48.988;8.450;2023-04-25T01:00:40;8.40;99.90
21815;DHT22;11069;48.988;8.450;2023-04-25T01:03:06;8.30;99.90
21815;DHT22;11069;48.988;8.450;2023-04-25T01:05:32;8.30;99.90
21815;DHT22;11069;48.988;8.450;2023-04-25T01:07:58;8.40;99.90
21815;DHT22;11069;48.988;8.450;2023-04-25T01:10:24;8.40;99.90
21815;DHT22;11069;48.988;8.450;2023-04-25T01:12:50;8.40;99.90
21815;DHT22;11069;48.988;8.450;2023-04-25T01:15:15;8.30;99.90
21815;DHT22;11069;48.988;8.450;2023-04-25T01:17:41;8.30;99.90
21815;DHT22;11069;48.988;8.450;2023-04-25T01:20:08;8.40;99.90
21815;DHT22;11069;48.988;8.450;2023-04-25T01:22:35;8.40;99.90
21815;DHT22;11069;48.988;8.450;2023-04-25T01:25:01;8.40;99.90
21815;DHT22;11069;48.988;8.450;2023-04-25T01:27:27;8.40;99.90
21815;DHT22;11069;48.988;8.450;2023-04-25T01:29:54;8.30;99.90
21815;DHT22;11069;48.988;8.450;2023-04-25T01:32:22;8.30;99.90
21815;DHT22;11069;48.988;8.450;2023-04-25T01:34:47;8.30;99.90
21815;DHT22;11069;48.988;8.450;2023-04-25T01:37:14;8.50;99.90
21815;DHT22;11069;48.988;8.450;2023-04-25T01:39:40;8.50;99.90
21815;DHT22;11069;48.988;8.450;2023-04-25T01:42:06;8.50;99.90
21815;DHT22;11069;48.988;8.450;2023-04-25T01:44:32;8.50;99.90
21815;DHT22;11069;48.988;8.450;2023-04-25T01:46:57;8.40;99.90
21815;DHT22;11069;48.988;8.450;2023-04-25T01:49:23;8.40;99.90
21815;DHT22;11069;48.988;8.450;2023-04-25T01:51:49;8.50;99.90
21815;DHT22;11069;48.988;8.450;2023-04-25T01:54:14;8.60;99.90
21815;DHT22;11069;48.988;8.450;2023-04-25T01:56:40;8.60;99.90
21815;DHT22;11069;48.988;8.450;2023-04-25T01:59:06;8.60;99.90
21815;DHT22;11069;48.988;8.450;2023-04-25T02:01:32;8.60;99.90
21815;DHT22;11069;48.988;8.450;2023-04-25T02:03:58;8.60;99.90
21815;DHT22;11069;48.988;8.450;2023-04-25T02:06:23;8.60;99.90
21815;DHT22;11069;48.988;8.450;2023-04-25T02:08:49;8.70;99.90
21815;DHT22;11069;48.988;8.450;2023-04-25T02:11:15;8.60;99.90
21815;DHT22;11069;48.988;8.450;2023-04-25T02:13:41;8.60;99.90
21815;DHT22;11069;48.988;8.450;2023-04-25T02:16:06;8.70;99.90
21815;DHT22;11069;48.988;8.450;2023-04-25T02:18:32;8.70;99.90
21815;DHT22;11069;48.988;8.450;2023-04-25T02:20:59;8.70;99.90
21815;DHT22;11069;48.988;8.450;2023-04-25T02:23:25;8.60;99.90
21815;DHT22;11069;48.988;8.450;2023-04-25T02:25:50;8.60;99.90
21815;DHT22;11069;48.988;8.450;2023-04-25T02:28:17;8.60;99.90
21815;DHT22;11069;48.988;8.450;2023-04-25T02:30:45;8.60;99.90
21815;DHT22;11069;48.988;8.450;2023-04-25T02:33:11;8.70;99.90
21815;DHT22;11069;48.988;8.450;2023-04-25T02:35:36;8.70;99.90
21815;DHT22;11069;48.988;8.450;2023-04-25T02:38:02;8.60;99.90
21815;DHT22;11069;48.988;8.450;2023-04-25T02:40:27;8.60;99.90
21815;DHT22;11069;48.988;8.450;2023-04-25T02:42:53;8.60;99.90
21815;DHT22;11069;48.988;8.450;2023-04-25T02:45:19;8.50;99.90
21815;DHT22;11069;48.988;8.450;2023-04-25T02:47:44;8.50;99.90
21815;DHT22;11069;48.988;8.450;2023-04-25T02:50:10;8.40;99.90
21815;DHT22;11069;48.988;8.450;2023-04-25T02:52:36;8.30;99.90
21815;DHT22;11069;48.988;8.450;2023-04-25T02:55:02;8.30;99.90
21815;DHT22;11069;48.988;8.450;2023-04-25T02:57:27;8.20;99.90
21815;DHT22;11069;48.988;8.450;2023-04-25T02:59:53;8.20;99.90
21815;DHT22;11069;48.988;8.450;2023-04-25T03:02:18;8.10;99.90
21815;DHT22;11069;48.988;8.450;2023-04-25T03:04:44;8.10;99.90
21815;DHT22;11069;48.988;8.450;2023-04-25T03:07:09;8.10;99.90
21815;DHT22;11069;48.988;8.450;2023-04-25T03:09:35;8.10;99.90
21815;DHT22;11069;48.988;8.450;2023-04-25T03:12:01;8.20;99.90
21815;DHT22;11069;48.988;8.450;2023-04-25T03:14:26;8.20;99.90
21815;DHT22;11069;48.988;8.450;2023-04-25T03:16:52;8.10;99.90
21815;DHT22;11069;48.988;8.450;2023-04-25T03:19:17;8.10;99.90
21815;DHT22;11069;48.988;8.450;2023-04-25T03:21:44;8.00;99.90
21815;DHT22;11069;48.988;8.450;2023-04-25T03:24:10;8.10;99.90
21815;DHT22;11069;48.988;8.450;2023-04-25T03:26:37;8.00;99.90
21815;DHT22;11069;48.988;8.450;2023-04-25T03:29:02;8.00;99.90
21815;DHT22;11069;48.988;8.450;2023-04-25T03:31:28;8.00;99.90
21815;DHT22;11069;48.988;8.450;2023-04-25T03:33:54;8.00;99.90
21815;DHT22;11069;48.988;8.450;2023-04-25T03:36:19;8.00;99.90
21815;DHT22;11069;48.988;8.450;2023-04-25T03:38:45;7.90;99.90
21815;DHT22;11069;48.988;8.450;2023-04-25T03:41:10;8.00;99.90
21815;DHT22;11069;48.988;8.450;2023-04-25T03:43:36;7.90;99.90
21815;DHT22;11069;48.988;8.450;2023-04-25T03:46:02;7.90;99.90
21815;DHT22;11069;48.988;8.450;2023-04-25T03:48:27;7.90;99.90
21815;DHT22;11069;48.988;8.450;2023-04-25T03:50:54;7.80;99.90
21815;DHT22;11069;48.988;8.450;2023-04-25T03:53:19;7.90;99.90
21815;DHT22;11069;48.988;8.450;2023-04-25T03:55:45;7.90;99.90
21815;DHT22;11069;48.988;8.450;2023-04-25T03:58:11;7.90;99.90
21815;DHT22;11069;48.988;8.450;2023-04-25T04:00:36;8.00;99.90
21815;DHT22;11069;48.988;8.450;2023-04-25T04:03:02;8.10;99.90
21815;DHT22;11069;48.988;8.450;2023-04-25T04:05:28;8.10;99.90
21815;DHT22;11069;48.988;8.450;2023-04-25T04:07:54;8.10;99.90
21815;DHT22;11069;48.988;8.450;2023-04-25T04:10:19;8.10;99.90
21815;DHT22;11069;48.988;8.450;2023-04-25T04:12:45;8.10;99.90
21815;DHT22;11069;48.988;8.450;2023-04-25T04:15:11;8.10;99.90
21815;DHT22;11069;48.988;8.450;2023-04-25T04:17:37;8.00;99.90
21815;DHT22;11069;48.988;8.450;2023-04-25T04:20:03;8.00;99.90
21815;DHT22;11069;48.988;8.450;2023-04-25T04:22:29;8.00;99.90
21815;DHT22;11069;48.988;8.450;2023-04-25T04:24:54;8.10;99.90
21815;DHT22;11069;48.988;8.450;2023-04-25T04:27:23;8.10;99.90
21815;DHT22;11069;48.988;8.450;2023-04-25T04:29:48;8.00;99.90
21815;DHT22;11069;48.988;8.450;2023-04-25T04:32:16;8.10;99.90
21815;DHT22;11069;48.988;8.450;2023-04-25T04:34:42;8.00;99.90
21815;DHT22;11069;48.988;8.450;2023-04-25T04:37:08;8.00;99.90
21815;DHT22;11069;48.988;8.450;2023-04-25T04:39:35;8.10;99.90
21815;DHT22;11069;48.988;8.450;2023-04-25T04:42:00;8.00;99.90
21815;DHT22;11069;48.988;8.450;2023-04-25T04:44:30;8.10;99.90
21815;DHT22;11069;48.988;8.450;2023-04-25T04:46:58;8.10;99.90
21815;DHT22;11069;48.988;8.450;2023-04-25T04:49:23;8.10;99.90
21815;DHT22;11069;48.988;8.450;2023-04-25T04:51:49;8.10;99.90
21815;DHT22;11069;48.988;8.450;2023-04-25T04:54:15;8.20;99.90
21815;DHT22;11069;48.988;8.450;2023-04-25T04:56:40;8.20;99.90
21815;DHT22;11069;48.988;8.450;2023-04-25T04:59:07;8.30;99.90
21815;DHT22;11069;48.988;8.450;2023-04-25T05:01:33;8.40;99.90
21815;DHT22;11069;48.988;8.450;2023-04-25T05:04:01;8.40;99.90
21815;DHT22;11069;48.988;8.450;2023-04-25T05:06:28;8.50;99.90
21815;DHT22;11069;48.988;8.450;2023-04-25T05:08:57;8.50;99.90
21815;DHT22;11069;48.988;8.450;2023-04-25T05:11:24;8.50;99.90
21815;DHT22;11069;48.988;8.450;2023-04-25T05:13:52;8.50;99.90
21815;DHT22;11069;48.988;8.450;2023-04-25T05:16:17;8.50;99.90
21815;DHT22;11069;48.988;8.450;2023-04-25T05:18:43;8.40;99.90
21815;DHT22;11069;48.988;8.450;2023-04-25T05:21:09;8.50;99.90
21815;DHT22;11069;48.988;8.450;2023-04-25T05:23:34;8.40;99.90
21815;DHT22;11069;48.988;8.450;2023-04-25T05:26:00;8.50;99.90
21815;DHT22;11069;48.988;8.450;2023-04-25T05:28:25;8.50;99.90
21815;DHT22;11069;48.988;8.450;2023-04-25T05:30:51;8.60;99.90
21815;DHT22;11069;48.988;8.450;2023-04-25T05:33:17;8.60;99.90
21815;DHT22;11069;48.988;8.450;2023-04-25T05:35:43;8.70;99.90
21815;DHT22;11069;48.988;8.450;2023-04-25T05:38:09;8.70;99.90
21815;DHT22;11069;48.988;8.450;2023-04-25T05:40:35;8.80;99.90
21815;DHT22;11069;48.988;8.450;2023-04-25T05:43:00;8.90;99.90
21815;DHT22;11069;48.988;8.450;2023-04-25T05:45:26;9.10;99.90
21815;DHT22;11069;48.988;8.450;2023-04-25T05:47:51;9.30;99.90
21815;DHT22;11069;48.988;8.450;2023-04-25T05:50:17;9.60;99.90
21815;DHT22;11069;48.988;8.450;2023-04-25T05:52:43;9.80;99.90
21815;DHT22;11069;48.988;8.450;2023-04-25T05:55:09;9.90;99.90
21815;DHT22;11069;48.988;8.450;2023-04-25T05:57:34;10.00;99.90
21815;DHT22;11069;48.988;8.450;2023-04-25T06:00:00;10.00;99.90
21815;DHT22;11069;48.988;8.450;2023-04-25T06:02:26;10.00;99.90
21815;DHT22;11069;48.988;8.450;2023-04-25T06:04:52;10.10;99.90
21815;DHT22;11069;48.988;8.450;2023-04-25T06:07:18;10.00;99.90
21815;DHT22;11069;48.988;8.450;2023-04-25T06:09:44;10.00;99.90
21815;DHT22;11069;48.988;8.450;2023-04-25T06:12:09;9.90;99.90
21815;DHT22;11069;48.988;8.450;2023-04-25T06:14:35;9.90;99.90
21815;DHT22;11069;48.988;8.450;2023-04-25T06:17:03;9.90;99.90
21815;DHT22;11069;48.988;8.450;2023-04-25T06:19:35;9.90;99.90
21815;DHT22;11069;48.988;8.450;2023-04-25T06:22:01;9.80;99.90
21815;DHT22;11069;48.988;8.450;2023-04-25T06:24:27;9.60;99.90
21815;DHT22;11069;48.988;8.450;2023-04-25T06:26:53;9.60;99.90
21815;DHT22;11069;48.988;8.450;2023-04-25T06:29:18;9.50;99.90
21815;DHT22;11069;48.988;8.450;2023-04-25T06:31:44;9.40;99.90
21815;DHT22;11069;48.988;8.450;2023-04-25T06:34:10;9.20;99.90
21815;DHT22;11069;48.988;8.450;2023-04-25T06:36:36;9.20;99.90
21815;DHT22;11069;48.988;8.450;2023-04-25T06:39:01;9.20;99.90
21815;DHT22;11069;48.988;8.450;2023-04-25T06:41:27;9.10;99.90
21815;DHT22;11069;48.988;8.450;2023-04-25T06:43:53;9.00;99.90
21815;DHT22;11069;48.988;8.450;2023-04-25T06:46:18;8.80;99.90
21815;DHT22;11069;48.988;8.450;2023-04-25T06:48:44;8.80;99.90
21815;DHT22;11069;48.988;8.450;2023-04-25T06:51:09;8.80;99.90
21815;DHT22;11069;48.988;8.450;2023-04-25T06:53:35;8.80;99.90
21815;DHT22;11069;48.988;8.450;2023-04-25T06:56:01;8.80;99.90
21815;DHT22;11069;48.988;8.450;2023-04-25T06:58:27;8.90;99.90
21815;DHT22;11069;48.988;8.450;2023-04-25T07:00:52;8.90;99.90
21815;DHT22;11069;48.988;8.450;2023-04-25T07:03:18;8.90;99.90
21815;DHT22;11069;48.988;8.450;2023-04-25T07:05:43;8.90;99.90
21815;DHT22;11069;48.988;8.450;2023-04-25T07:08:11;9.00;99.90
21815;DHT22;11069;48.988;8.450;2023-04-25T07:10:36;9.00;99.90
21815;DHT22;11069;48.988;8.450;2023-04-25T07:13:02;9.00;99.90
21815;DHT22;11069;48.988;8.450;2023-04-25T07:15:27;9.10;99.90
21815;DHT22;11069;48.988;8.450;2023-04-25T07:17:53;9.10;99.90
21815;DHT22;11069;48.988;8.450;2023-04-25T07:20:18;9.10;99.90
21815;DHT22;11069;48.988;8.450;2023-04-25T07:22:44;9.10;99.90
21815;DHT22;11069;48.988;8.450;2023-04-25T07:25:10;9.10;99.90
21815;DHT22;11069;48.988;8.450;2023-04-25T07:27:35;9.10;99.90
21815;DHT22;11069;48.988;8.450;2023-04-25T07:30:01;9.10;99.90
21815;DHT22;11069;48.988;8.450;2023-04-25T07:32:28;9.10;99.90
21815;DHT22;11069;48.988;8.450;2023-04-25T07:34:54;9.10;99.90
21815;DHT22;11069;48.988;8.450;2023-04-25T07:37:19;9.00;99.90
21815;DHT22;11069;48.988;8.450;2023-04-25T07:39:45;9.00;99.90
21815;DHT22;11069;48.988;8.450;2023-04-25T07:42:14;9.00;99.90
21815;DHT22;11069;48.988;8.450;2023-04-25T07:44:39;9.00;99.90
21815;DHT22;11069;48.988;8.450;2023-04-25T07:47:09;9.10;99.90
21815;DHT22;11069;48.988;8.450;2023-04-25T07:49:38;9.10;99.90
21815;DHT22;11069;48.988;8.450;2023-04-25T07:52:04;9.00;99.90
21815;DHT22;11069;48.988;8.450;2023-04-25T07:54:31;9.00;99.90
21815;DHT22;11069;48.988;8.450;2023-04-25T07:56:58;8.90;99.90
21815;DHT22;11069;48.988;8.450;2023-04-25T07:59:23;8.90;99.90
21815;DHT22;11069;48.988;8.450;2023-04-25T08:01:49;8.90;99.90
21815;DHT22;11069;48.988;8.450;2023-04-25T08:04:15;8.90;99.90
21815;DHT22;11069;48.988;8.450;2023-04-25T08:06:40;9.00;99.90
21815;DHT22;11069;48.988;8.450;2023-04-25T08:09:09;9.00;99.90
21815;DHT22;11069;48.988;8.450;2023-04-25T08:11:36;9.10;99.90
21815;DHT22;11069;48.988;8.450;2023-04-25T08:14:02;9.10;99.90
21815;DHT22;11069;48.988;8.450;2023-04-25T08:16:28;9.20;99.90
21815;DHT22;11069;48.988;8.450;2023-04-25T08:18:54;9.10;99.90
21815;DHT22;11069;48.988;8.450;2023-04-25T08:21:19;9.20;99.90
21815;DHT22;11069;48.988;8.450;2023-04-25T08:23:45;9.20;99.90
21815;DHT22;11069;48.988;8.450;2023-04-25T08:26:11;9.20;99.90
21815;DHT22;11069;48.988;8.450;2023-04-25T08:28:36;9.20;99.90
21815;DHT22;11069;48.988;8.450;2023-04-25T08:31:02;9.40;99.90
21815;DHT22;11069;48.988;8.450;2023-04-25T08:33:28;9.50;99.90
21815;DHT22;11069;48.988;8.450;2023-04-25T08:35:54;9.50;99.90
21815;DHT22;11069;48.988;8.450;2023-04-25T08:38:20;9.40;99.90
21815;DHT22;11069;48.988;8.450;2023-04-25T08:40:49;9.40;99.90
21815;DHT22;11069;48.988;8.450;2023-04-25T08:43:18;9.50;99.90
21815;DHT22;11069;48.988;8.450;2023-04-25T08:45:44;9.40;99.90
21815;DHT22;11069;48.988;8.450;2023-04-25T08:48:13;9.40;99.90
21815;DHT22;11069;48.988;8.450;2023-04-25T08:50:47;9.50;99.90
21815;DHT22;11069;48.988;8.450;2023-04-25T08:53:17;9.70;99.90
21815;DHT22;11069;48.988;8.450;2023-04-25T08:55:46;9.70;99.90
21815;DHT22;11069;48.988;8.450;2023-04-25T08:58:13;9.60;99.90
21815;DHT22;11069;48.988;8.450;2023-04-25T09:00:38;9.60;99.90
21815;DHT22;11069;48.988;8.450;2023-04-25T09:03:05;9.80;99.90
21815;DHT22;11069;48.988;8.450;2023-04-25T09:05:32;9.70;99.90
21815;DHT22;11069;48.988;8.450;2023-04-25T09:07:58;9.70;99.90
21815;DHT22;11069;48.988;8.450;2023-04-25T09:10:24;9.60;99.90
21815;DHT22;11069;48.988;8.450;2023-04-25T09:13:25;9.40;99.90
21815;DHT22;11069;48.988;8.450;2023-04-25T09:15:56;9.40;99.90
21815;DHT22;11069;48.988;8.450;2023-04-25T09:18:29;9.50;99.90
21815;DHT22;11069;48.988;8.450;2023-04-25T09:20:57;9.60;99.90
21815;DHT22;11069;48.988;8.450;2023-04-25T09:23:23;9.50;99.90
21815;DHT22;11069;48.988;8.450;2023-04-25T09:25:51;9.50;99.90
21815;DHT22;11069;48.988;8.450;2023-04-25T09:28:23;9.40;99.90
21815;DHT22;11069;48.988;8.450;2023-04-25T09:30:55;9.30;99.90
21815;DHT22;11069;48.988;8.450;2023-04-25T09:33:35;9.10;99.90
21815;DHT22;11069;48.988;8.450;2023-04-25T09:36:07;9.20;99.90
21815;DHT22;11069;48.988;8.450;2023-04-25T09:38:44;9.30;99.90
21815;DHT22;11069;48.988;8.450;2023-04-25T09:41:11;9.30;99.90
21815;DHT22;11069;48.988;8.450;2023-04-25T09:43:37;9.20;99.90
21815;DHT22;11069;48.988;8.450;2023-04-25T09:46:10;9.10;99.90
21815;DHT22;11069;48.988;8.450;2023-04-25T09:48:37;8.90;99.90
21815;DHT22;11069;48.988;8.450;2023-04-25T09:53:36;8.20;99.90
21815;DHT22;11069;48.988;8.450;2023-04-25T09:56:04;8.00;99.90
21815;DHT22;11069;48.988;8.450;2023-04-25T09:58:31;7.80;99.90
21815;DHT22;11069;48.988;8.450;2023-04-25T10:01:09;7.50;99.90
21815;DHT22;11069;48.988;8.450;2023-04-25T10:03:36;7.50;99.90
21815;DHT22;11069;48.988;8.450;2023-04-25T10:06:04;7.60;99.90
21815;DHT22;11069;48.988;8.450;2023-04-25T10:08:33;7.60;99.90
21815;DHT22;11069;48.988;8.450;2023-04-25T10:11:01;7.80;99.90
21815;DHT22;11069;48.988;8.450;2023-04-25T10:13:29;7.90;99.90
21815;DHT22;11069;48.988;8.450;2023-04-25T10:15:57;8.00;99.90
21815;DHT22;11069;48.988;8.450;2023-04-25T10:18:24;7.90;99.90
21815;DHT22;11069;48.988;8.450;2023-04-25T10:20:50;7.80;99.90
21815;DHT22;11069;48.988;8.450;2023-04-25T10:23:16;8.00;99.90
21815;DHT22;11069;48.988;8.450;2023-04-25T10:25:42;8.10;99.90
21815;DHT22;11069;48.988;8.450;2023-04-25T10:28:08;8.10;99.90
21815;DHT22;11069;48.988;8.450;2023-04-25T10:30:34;8.20;99.90
21815;DHT22;11069;48.988;8.450;2023-04-25T10:32:59;8.20;99.90
21815;DHT22;11069;48.988;8.450;2023-04-25T10:35:29;8.40;99.90
21815;DHT22;11069;48.988;8.450;2023-04-25T10:38:05;8.40;99.90
21815;DHT22;11069;48.988;8.450;2023-04-25T10:40:34;8.40;99.90
21815;DHT22;11069;48.988;8.450;2023-04-25T10:45:56;8.50;99.90
21815;DHT22;11069;48.988;8.450;2023-04-25T10:48:30;8.60;99.90
21815;DHT22;11069;48.988;8.450;2023-04-25T10:51:11;8.60;99.90
21815;DHT22;11069;48.988;8.450;2023-04-25T10:53:37;8.60;99.90
21815;DHT22;11069;48.988;8.450;2023-04-25T10:56:19;8.60;99.90
21815;DHT22;11069;48.988;8.450;2023-04-25T10:58:46;8.90;99.90
21815;DHT22;11069;48.988;8.450;2023-04-25T11:01:13;8.90;99.90
21815;DHT22;11069;48.988;8.450;2023-04-25T11:03:43;8.90;99.90
21815;DHT22;11069;48.988;8.450;2023-04-25T11:06:34;8.90;99.90
21815;DHT22;11069;48.988;8.450;2023-04-25T11:09:03;8.90;99.90
21815;DHT22;11069;48.988;8.450;2023-04-25T11:11:36;8.80;99.90
21815;DHT22;11069;48.988;8.450;2023-04-25T11:14:02;8.80;99.90
21815;DHT22;11069;48.988;8.450;2023-04-25T11:16:27;8.90;99.90
21815;DHT22;11069;48.988;8.450;2023-04-25T11:18:53;9.00;99.90
21815;DHT22;11069;48.988;8.450;2023-04-25T11:21:22;8.90;99.90
21815;DHT22;11069;48.988;8.450;2023-04-25T11:23:48;8.70;99.90
21815;DHT22;11069;48.988;8.450;2023-04-25T11:26:13;8.50;99.90
21815;DHT22;11069;48.988;8.450;2023-04-25T11:28:40;8.60;99.90
21815;DHT22;11069;48.988;8.450;2023-04-25T11:31:05;8.30;99.90
21815;DHT22;11069;48.988;8.450;2023-04-25T11:33:32;8.20;99.90
21815;DHT22;11069;48.988;8.450;2023-04-25T11:35:57;8.10;99.90
21815;DHT22;11069;48.988;8.450;2023-04-25T11:38:24;8.20;99.90
21815;DHT22;11069;48.988;8.450;2023-04-25T11:40:53;8.30;99.90
21815;DHT22;11069;48.988;8.450;2023-04-25T11:43:22;8.10;99.90
21815;DHT22;11069;48.988;8.450;2023-04-25T11:45:49;8.00;99.90
21815;DHT22;11069;48.988;8.450;2023-04-25T11:48:16;8.00;99.90
21815;DHT22;11069;48.988;8.450;2023-04-25T11:50:41;8.00;99.90
21815;DHT22;11069;48.988;8.450;2023-04-25T11:53:07;8.00;99.90
21815;DHT22;11069;48.988;8.450;2023-04-25T11:55:34;8.20;99.90
21815;DHT22;11069;48.988;8.450;2023-04-25T11:58:00;8.40;99.90
21815;DHT22;11069;48.988;8.450;2023-04-25T12:00:27;8.80;99.90
21815;DHT22;11069;48.988;8.450;2023-04-25T12:02:54;8.90;99.90
21815;DHT22;11069;48.988;8.450;2023-04-25T12:05:20;9.20;99.90
21815;DHT22;11069;48.988;8.450;2023-04-25T12:07:49;9.10;99.90
21815;DHT22;11069;48.988;8.450;2023-04-25T12:10:18;9.20;99.90
21815;DHT22;11069;48.988;8.450;2023-04-25T12:12:45;9.10;99.90
21815;DHT22;11069;48.988;8.450;2023-04-25T12:17:38;9.00;99.90
21815;DHT22;11069;48.988;8.450;2023-04-25T12:20:31;9.00;99.90
21815;DHT22;11069;48.988;8.450;2023-04-25T12:22:57;9.30;99.90
21815;DHT22;11069;48.988;8.450;2023-04-25T12:25:39;9.10;99.90
21815;DHT22;11069;48.988;8.450;2023-04-25T12:28:20;9.00;99.90
21815;DHT22;11069;48.988;8.450;2023-04-25T12:31:01;9.10;99.90
21815;DHT22;11069;48.988;8.450;2023-04-25T12:33:32;9.50;99.90
21815;DHT22;11069;48.988;8.450;2023-04-25T12:35:59;9.70;99.90
21815;DHT22;11069;48.988;8.450;2023-04-25T12:38:27;9.60;99.90
21815;DHT22;11069;48.988;8.450;2023-04-25T12:40:57;10.00;99.90
21815;DHT22;11069;48.988;8.450;2023-04-25T12:43:23;10.20;99.90
21815;DHT22;11069;48.988;8.450;2023-04-25T12:45:50;10.10;99.90
21815;DHT22;11069;48.988;8.450;2023-04-25T12:48:16;10.40;99.90
21815;DHT22;11069;48.988;8.450;2023-04-25T12:50:42;10.20;99.90
21815;DHT22;11069;48.988;8.450;2023-04-25T12:53:07;10.30;99.90
21815;DHT22;11069;48.988;8.450;2023-04-25T12:55:33;10.30;99.90
21815;DHT22;11069;48.988;8.450;2023-04-25T12:57:59;10.00;99.90
21815;DHT22;11069;48.988;8.450;2023-04-25T13:00:24;10.10;99.90
21815;DHT22;11069;48.988;8.450;2023-04-25T13:02:51;10.00;99.90
21815;DHT22;11069;48.988;8.450;2023-04-25T13:05:17;10.00;99.90
21815;DHT22;11069;48.988;8.450;2023-04-25T13:07:42;10.10;99.90
21815;DHT22;11069;48.988;8.450;2023-04-25T13:10:08;9.90;99.90
21815;DHT22;11069;48.988;8.450;2023-04-25T13:12:34;9.60;99.90
21815;DHT22;11069;48.988;8.450;2023-04-25T13:15:00;9.50;99.90
21815;DHT22;11069;48.988;8.450;2023-04-25T13:17:25;9.60;99.90
21815;DHT22;11069;48.988;8.450;2023-04-25T13:19:54;9.80;99.90
21815;DHT22;11069;48.988;8.450;2023-04-25T13:22:19;10.00;99.90
21815;DHT22;11069;48.988;8.450;2023-04-25T13:24:46;10.20;99.90
21815;DHT22;11069;48.988;8.450;2023-04-25T13:27:12;10.30;99.90
21815;DHT22;11069;48.988;8.450;2023-04-25T13:29:38;10.20;99.90
21815;DHT22;11069;48.988;8.450;2023-04-25T13:32:06;10.50;99.90
21815;DHT22;11069;48.988;8.450;2023-04-25T13:34:31;10.60;99.90
21815;DHT22;11069;48.988;8.450;2023-04-25T13:36:57;10.20;99.90
21815;DHT22;11069;48.988;8.450;2023-04-25T13:39:22;10.30;99.90
21815;DHT22;11069;48.988;8.450;2023-04-25T13:41:48;10.60;99.90
21815;DHT22;11069;48.988;8.450;2023-04-25T13:44:13;10.90;99.90
21815;DHT22;11069;48.988;8.450;2023-04-25T13:46:39;11.20;99.90
21815;DHT22;11069;48.988;8.450;2023-04-25T13:49:05;11.70;99.90
21815;DHT22;11069;48.988;8.450;2023-04-25T13:51:31;11.80;99.90
21815;DHT22;11069;48.988;8.450;2023-04-25T13:53:57;12.30;99.90
21815;DHT22;11069;48.988;8.450;2023-04-25T13:59:54;13.80;99.90
21815;DHT22;11069;48.988;8.450;2023-04-25T14:02:20;14.20;99.90
21815;DHT22;11069;48.988;8.450;2023-04-25T14:04:45;14.30;99.90
21815;DHT22;11069;48.988;8.450;2023-04-25T14:07:11;14.40;99.90
21815;DHT22;11069;48.988;8.450;2023-04-25T14:09:37;14.00;99.90
21815;DHT22;11069;48.988;8.450;2023-04-25T14:12:02;13.80;99.90
21815;DHT22;11069;48.988;8.450;2023-04-25T14:14:28;14.00;99.90
21815;DHT22;11069;48.988;8.450;2023-04-25T14:16:54;14.30;99.90
21815;DHT22;11069;48.988;8.450;2023-04-25T14:19:20;14.40;99.90
21815;DHT22;11069;48.988;8.450;2023-04-25T14:21:46;14.30;99.90
21815;DHT22;11069;48.988;8.450;2023-04-25T14:24:12;14.50;99.90
21815;DHT22;11069;48.988;8.450;2023-04-25T14:26:38;13.90;99.90
21815;DHT22;11069;48.988;8.450;2023-04-25T14:29:07;13.40;99.90
21815;DHT22;11069;48.988;8.450;2023-04-25T14:31:34;13.40;99.90
21815;DHT22;11069;48.988;8.450;2023-04-25T14:34:01;13.40;99.90
21815;DHT22;11069;48.988;8.450;2023-04-25T14:36:28;14.00;99.90
21815;DHT22;11069;48.988;8.450;2023-04-25T14:38:54;14.10;99.90
21815;DHT22;11069;48.988;8.450;2023-04-25T14:41:20;13.50;99.90
21815;DHT22;11069;48.988;8.450;2023-04-25T14:43:46;12.80;99.90
21815;DHT22;11069;48.988;8.450;2023-04-25T14:46:12;12.70;99.90
21815;DHT22;11069;48.988;8.450;2023-04-25T14:48:38;12.20;99.90
21815;DHT22;11069;48.988;8.450;2023-04-25T14:51:04;12.00;99.90
21815;DHT22;11069;48.988;8.450;2023-04-25T14:53:30;12.30;99.90
21815;DHT22;11069;48.988;8.450;2023-04-25T14:55:56;12.50;99.90
21815;DHT22;11069;48.988;8.450;2023-04-25T14:58:21;12.50;99.90
21815;DHT22;11069;48.988;8.450;2023-04-25T15:00:48;12.70;99.90
21815;DHT22;11069;48.988;8.450;2023-04-25T15:03:13;12.90;99.90
21815;DHT22;11069;48.988;8.450;2023-04-25T15:05:41;13.10;99.90
21815;DHT22;11069;48.988;8.450;2023-04-25T15:08:08;13.30;99.90
21815;DHT22;11069;48.988;8.450;2023-04-25T15:10:33;13.30;99.90
21815;DHT22;11069;48.988;8.450;2023-04-25T15:12:59;13.30;99.90
21815;DHT22;11069;48.988;8.450;2023-04-25T15:15:25;13.50;99.90
21815;DHT22;11069;48.988;8.450;2023-04-25T15:17:50;13.60;99.90
21815;DHT22;11069;48.988;8.450;2023-04-25T15:20:16;13.80;99.90
21815;DHT22;11069;48.988;8.450;2023-04-25T15:22:43;13.70;99.90
21815;DHT22;11069;48.988;8.450;2023-04-25T15:25:10;13.50;99.90
21815;DHT22;11069;48.988;8.450;2023-04-25T15:27:37;13.30;99.90
21815;DHT22;11069;48.988;8.450;2023-04-25T15:30:07;13.10;99.90
21815;DHT22;11069;48.988;8.450;2023-04-25T15:32:35;12.80;99.90
21815;DHT22;11069;48.988;8.450;2023-04-25T15:35:04;12.50;99.90
21815;DHT22;11069;48.988;8.450;2023-04-25T15:37:30;12.20;99.90
21815;DHT22;11069;48.988;8.450;2023-04-25T15:40:10;12.00;99.90
21815;DHT22;11069;48.988;8.450;2023-04-25T15:45:06;11.50;99.90
21815;DHT22;11069;48.988;8.450;2023-04-25T15:47:33;11.20;99.90
21815;DHT22;11069;48.988;8.450;2023-04-25T15:50:00;10.90;99.90
21815;DHT22;11069;48.988;8.450;2023-04-25T15:52:26;10.70;99.90
21815;DHT22;11069;48.988;8.450;2023-04-25T15:54:52;10.40;99.90